East Willows Rd (358) Station Data

Red Flag Warning: No
Fire Weather Zone: 250
SDGE Region: Eastern
Lat/Lon: 32.837/-116.682

Observations

Time Wind Speed/Gust Temp(F) RH Fuel Moist Fuel Temp(F) Dewpt(F) Tmax(F) Tmin(F) Accum Precip 10-min Precip SL Press(mb)
4/26 2:30am 97 1 G 3 55° 58% - - 40° 56.8° 52.5° - - -
4/26 2:20am 77 1 G 4 55° 56% - - 40° 56.8° 52.5° - - -
4/26 2:10am 114 5 G 7 54° 59% - - 40° 56.8° 52.5° - - -
4/26 2:00am 128 5 G 8 54° 60% - - 41° 56.8° 52.5° - - -
4/26 1:50am 109 7 G 10 54° 61% - - 41° 56.8° 52.5° - - -
4/26 1:40am 114 5 G 7 55° 57% - - 41° 56.8° 52.5° - - -
4/26 1:30am 108 3 G 5 56° 58% - - 42° 56.8° 52.5° - - -
4/26 1:20am 90 3 G 5 56° 60% - - 42° 56.8° 52.5° - - -
4/26 1:10am 53 2 G 4 56° 64% - - 44° 56.8° 52.5° - - -
4/26 1:00am 20 2 G 4 56° 65% - - 45° 56.7° 52.5° - - -
4/26 12:50am 0 2 G 4 56° 65% - - 44° 56.7° 52.5° - - -
4/26 12:40am 96 2 G 4 56° 65% - - 44° 56.7° 52.5° - - -
4/26 12:30am 313 3 G 6 56° 66% - - 45° 56.7° 52.5° - - -
4/26 12:20am 76 2 G 5 55° 65% - - 44° 56° 52.5° - - -
4/26 12:10am 80 3 G 4 53° 78% - - 46° 54.9° 52.5° - - -
4/26 12:00am 25 2 G 4 53° 87% - - 49° 61.1° 48.6° - - -
4/25 11:50pm 360 1 G 4 52° 88% - - 49° 61.1° 48.6° - - -
4/25 11:40pm 354 1 G 2 52° 92% - - 50° 61.1° 48.6° - - -
4/25 11:30pm 218 0 G 1 51° 95% - - 50° 61.1° 48.6° - - -
4/25 11:20pm 159 1 G 2 51° 96% - - 50° 61.1° 48.6° - - -
4/25 11:10pm 134 2 G 4 51° 97% - - 50° 61.1° 48.6° - - -
4/25 11:00pm 119 4 G 5 50° 99% - - 50° 61.1° 48.6° - - -
4/25 10:50pm 100 5 G 6 50° 100% - - 50° 61.1° 48.6° - - -
4/25 10:40pm 100 3 G 6 50° 99% - - 50° 61.1° 48.6° - - -
4/25 10:30pm 2 2 G 4 51° 97% - - 50° 61.1° 48.6° - - -
4/25 10:20pm 310 3 G 6 51° 95% - - 50° 61.1° 48.6° - - -
4/25 10:10pm 314 4 G 5 51° 94% - - 50° 61.1° 48.6° - - -
4/25 10:00pm 322 4 G 5 51° 94% - - 50° 61.1° 48.6° - - -
4/25 9:50pm 345 3 G 5 51° 95% - - 50° 61.1° 48.6° - - -
4/25 9:40pm 339 3 G 5 51° 93% - - 50° 61.1° 48.6° - - -
4/25 9:30pm 349 1 G 5 51° 94% - - 50° 61.1° 48.6° - - -
4/25 9:20pm 40 2 G 3 51° 93% - - 50° 61.1° 48.6° - - -
4/25 9:10pm 45 2 G 3 52° 93% - - 50° 61.1° 48.6° - - -
4/25 9:00pm 44 2 G 4 52° 92% - - 49° 61.1° 48.6° - - -
4/25 8:50pm 327 3 G 5 52° 91% - - 49° 61.1° 48.6° - - -
4/25 8:40pm 301 2 G 5 52° 90% - - 49° 61.1° 48.6° - - -
4/25 8:30pm 250 1 G 2 52° 89% - - 49° 61.1° 48.6° - - -
4/25 8:20pm 212 2 G 4 52° 88% - - 49° 61.1° 48.6° - - -
4/25 8:10pm 160 2 G 4 52° 88% - - 49° 61.1° 48.6° - - -
4/25 8:00pm 135 1 G 4 52° 88% - - 49° 61.1° 48.6° - - -
4/25 7:50pm 257 4 G 8 52° 87% - - 49° 61.1° 48.6° - - -
4/25 7:40pm 253 3 G 6 53° 85% - - 48° 61.1° 48.6° - - -
4/25 7:30pm 244 6 G 11 54° 83% - - 48° 61.1° 48.6° - - -
4/25 7:20pm 253 6 G 11 54° 81% - - 49° 61.1° 48.6° - - -
4/25 7:10pm 253 8 G 12 54° 81% - - 49° 61.1° 48.6° - - -
4/25 7:00pm 248 8 G 13 54° 82% - - 49° 61.1° 48.6° - - -
4/25 6:50pm 255 7 G 12 55° 82% - - 49° 61.1° 48.6° - - -
4/25 6:40pm 248 9 G 14 55° 83% - - 50° 61.1° 48.6° - - -
4/25 6:30pm 246 9 G 15 55° 86% - - 51° 61.1° 48.6° - - -
4/25 6:20pm 243 8 G 13 55° 89% - - 52° 61.1° 48.6° - - -
4/25 6:10pm 247 8 G 13 55° 89% - - 52° 61.1° 48.6° - - -
4/25 6:00pm 247 8 G 13 56° 89% - - 53° 61.1° 48.6° - - -
4/25 5:50pm 249 8 G 14 56° 90% - - 53° 61.1° 48.6° - - -
4/25 5:40pm 251 10 G 16 56° 88% - - 53° 61.1° 48.6° - - -
4/25 5:30pm 258 9 G 18 57° 82% - - 52° 61.1° 48.6° - - -
4/25 5:20pm 260 9 G 13 57° 80% - - 51° 61.1° 48.6° - - -
4/25 5:10pm 256 10 G 14 58° 78% - - 51° 61.1° 48.6° - - -
4/25 5:00pm 254 10 G 16 58° 75% - - 50° 61.1° 48.6° - - -
4/25 4:50pm 256 9 G 16 59° 73% - - 50° 61.1° 48.6° - - -
4/25 4:40pm 256 10 G 15 59° 73% - - 50° 61.1° 48.6° - - -
4/25 4:30pm 250 10 G 15 59° 74% - - 50° 61.1° 48.6° - - -
4/25 4:20pm 258 10 G 16 59° 73% - - 50° 61.1° 48.6° - - -
4/25 4:10pm 266 10 G 15 59° 72% - - 50° 61.1° 48.6° - - -
4/25 4:00pm 256 11 G 16 59° 74% - - 51° 61.1° 48.6° - - -
4/25 3:50pm 257 11 G 18 59° 74% - - 51° 61.1° 48.6° - - -
4/25 3:40pm 248 11 G 17 58° 78% - - 51° 61.1° 48.6° - - -
4/25 3:30pm 245 12 G 17 58° 80% - - 52° 61.1° 48.6° - - -
4/25 3:20pm 241 10 G 15 58° 81% - - 52° 61.1° 48.6° - - -
4/25 3:10pm 247 10 G 17 58° 78% - - 52° 61.1° 48.6° - - -
4/25 3:00pm 244 10 G 15 59° 76% - - 51° 61.1° 48.6° - - -
4/25 2:50pm 252 9 G 14 59° 70% - - 49° 61.1° 48.6° - - -
4/25 2:40pm 260 10 G 15 60° 67% - - 49° 61.1° 48.6° - - -
4/25 2:30pm 239 9 G 18 59° 69% - - 49° 61.1° 48.6° - - -
4/25 2:20pm 274 9 G 15 59° 66% - - 48° 61.1° 48.6° - - -
4/25 2:10pm 281 7 G 11 59° 66% - - 48° 61.1° 48.6° - - -
4/25 2:00pm 275 9 G 14 60° 66% - - 48° 61.1° 48.6° - - -
4/25 1:50pm 257 9 G 16 60° 66% - - 48° 61.1° 48.6° - - -
4/25 1:40pm 275 8 G 14 60° 64% - - 48° 61.1° 48.6° - - -
4/25 1:30pm 274 9 G 15 60° 65% - - 48° 61° 48.6° - - -
4/25 1:20pm 299 10 G 15 59° 63% - - 47° 60.6° 48.6° - - -
4/25 1:10pm 284 8 G 13 59° 63% - - 47° 60.6° 48.6° - - -
4/25 1:00pm 287 7 G 14 59° 63% - - 47° 60.6° 48.6° - - -
4/25 12:50pm 277 8 G 14 60° 62% - - 47° 60.1° 48.6° - - -
4/25 12:40pm 275 8 G 13 59° 62% - - 46° 60.1° 48.6° - - -
4/25 12:30pm 274 9 G 15 59° 63% - - 46° 59.9° 48.6° - - -
4/25 12:20pm 265 7 G 13 59° 65% - - 47° 59.9° 48.6° - - -
4/25 12:10pm 249 7 G 14 58° 65% - - 47° 59.9° 48.6° - - -
4/25 12:00pm 259 8 G 17 58° 66% - - 47° 59.9° 48.6° - - -
4/25 11:50am 266 8 G 15 58° 65% - - 47° 59.9° 48.6° - - -
4/25 11:40am 271 7 G 13 58° 65% - - 47° 59.6° 48.6° - - -
4/25 11:30am 271 8 G 13 58° 67% - - 46° 58.9° 48.6° - - -
4/25 11:20am 273 8 G 16 57° 66% - - 46° 58.9° 48.6° - - -
4/25 11:10am 272 9 G 15 57° 67% - - 46° 58.9° 48.6° - - -
4/25 11:00am 286 8 G 13 58° 66% - - 46° 58.9° 48.6° - - -
4/25 10:50am 262 8 G 14 57° 70% - - 48° 58.3° 48.6° - - -
4/25 10:40am 260 10 G 15 56° 77% - - 49° 57° 48.6° - - -
4/25 10:30am 253 10 G 14 56° 76% - - 48° 56.6° 48.6° - - -
4/25 10:20am 259 6 G 10 56° 72% - - 47° 56.6° 48.6° - - -
4/25 10:10am 243 7 G 12 54° 84% - - 49° 55.6° 48.6° - - -
4/25 10:00am 252 6 G 10 55° 82% - - 49° 55.6° 48.6° - - -
4/25 9:50am 260 5 G 10 54° 83% - - 49° 55.6° 48.6° - - -
4/25 9:40am 256 4 G 10 54° 81% - - 49° 55.6° 48.6° - - -
4/25 9:30am 280 5 G 8 54° 80% - - 48° 55.6° 48.6° - - -
4/25 9:20am 254 5 G 8 54° 86% - - 50° 55.1° 48.6° - - -
4/25 9:10am 247 5 G 8 53° 99% - - 52° 53.6° 48.6° - - -
4/25 9:00am 245 4 G 8 52° 98% - - 52° 53.2° 48.6° - - -
4/25 8:50am 222 3 G 5 52° 99% - - 52° 53.2° 48.6° - - -
4/25 8:40am 208 4 G 7 52° 100% - - 52° 52.6° 48.6° - - -
4/25 8:30am 232 5 G 7 51° 100% - - 51° 51.5° 48.6° - - -
4/25 8:20am 226 4 G 7 51° 100% - - 51° 51.5° 48.6° - - -
4/25 8:10am 247 3 G 6 51° 100% - - 51° 51.5° 48.6° - - -
4/25 8:00am 218 3 G 6 51° 100% - - 51° 51.2° 48.6° - - -
4/25 7:50am 224 4 G 7 50° 100% - - 50° 50.9° 48.6° - - -
4/25 7:40am 229 4 G 6 50° 100% - - 50° 50.9° 48.6° - - -
4/25 7:30am 240 4 G 6 50° 100% - - 50° 50.9° 48.6° - - -
4/25 7:20am 222 4 G 6 50° 100% - - 50° 50.7° 48.6° - - -
4/25 7:10am 211 4 G 6 50° 100% - - 50° 50.7° 48.6° - - -
4/25 7:00am 189 3 G 5 50° 100% - - 50° 50.3° 48.6° - - -
4/25 6:50am 211 2 G 3 50° 100% - - 50° 50.3° 48.6° - - -
4/25 6:40am 235 3 G 5 50° 100% - - 50° 50.3° 48.6° - - -
4/25 6:30am 209 3 G 5 49° 100% - - 49° 50.3° 48.6° - - -
4/25 6:20am 178 3 G 5 49° 100% - - 49° 50.3° 48.6° - - -
4/25 6:10am 168 2 G 4 49° 100% - - 49° 50.3° 48.6° - - -
4/25 6:00am 159 2 G 3 49° 100% - - 49° 50.3° 48.6° - - -
4/25 5:50am 148 3 G 5 49° 100% - - 49° 50.3° 48.6° - - -
4/25 5:40am 133 3 G 5 49° 100% - - 49° 50.3° 48.6° - - -
4/25 5:30am 133 3 G 5 49° 100% - - 49° 50.3° 48.6° - - -
4/25 5:20am 120 2 G 4 49° 100% - - 49° 50.3° 48.6° - - -
4/25 5:10am 162 3 G 5 49° 100% - - 49° 50.3° 48.6° - - -
4/25 5:00am 176 3 G 6 49° 100% - - 49° 50.3° 48.6° - - -
4/25 4:50am 190 4 G 7 49° 100% - - 49° 50.3° 48.6° - - -
4/25 4:40am 198 5 G 8 49° 100% - - 49° 50.3° 48.6° - - -
4/25 4:30am 192 5 G 9 49° 100% - - 49° 50.3° 48.6° - - -
4/25 4:20am 198 6 G 9 49° 100% - - 49° 50.3° 48.6° - - -
4/25 4:10am 197 5 G 9 49° 100% - - 49° 50.3° 48.6° - - -
4/25 4:00am 203 4 G 7 50° 100% - - 50° 50.3° 48.6° - - -
4/25 3:50am 199 4 G 7 50° 100% - - 50° 50.3° 48.6° - - -
4/25 3:40am 204 5 G 8 50° 100% - - 50° 50.3° 48.6° - - -
4/25 3:30am 188 6 G 10 50° 100% - - 50° 50.3° 48.6° - - -
4/25 3:20am 196 7 G 11 50° 100% - - 50° 50.3° 48.6° - - -
4/25 3:10am 207 7 G 11 50° 100% - - 50° 50.3° 48.6° - - -
4/25 3:00am 213 5 G 9 50° 100% - - 50° 50.3° 48.6° - - -
4/25 2:50am 207 6 G 10 50° 100% - - 50° 50.3° 48.6° - - -
4/25 2:40am 199 6 G 10 50° 100% - - 50° 50.3° 48.6° - - -
4/25 2:30am 200 5 G 10 50° 100% - - 50° 50.3° 48.6° - - -
4/25 2:20am 197 5 G 8 50° 100% - - 50° 50.3° 48.6° - - -
4/25 2:10am 198 5 G 10 50° 100% - - 50° 50.2° 48.6° - - -
4/25 2:00am 182 4 G 9 49° 100% - - 49° 50° 48.6° - - -
4/25 1:50am 175 5 G 7 49° 100% - - 49° 50° 48.6° - - -
4/25 1:40am 195 6 G 9 49° 100% - - 49° 50° 48.6° - - -
4/25 1:30am 214 6 G 9 49° 100% - - 49° 50° 48.6° - - -
4/25 1:20am 232 5 G 7 49° 100% - - 49° 50° 48.6° - - -
4/25 1:10am 223 6 G 10 49° 100% - - 49° 50° 48.6° - - -
4/25 1:00am 218 6 G 9 49° 100% - - 49° 50° 48.6° - - -
4/25 12:50am 199 5 G 7 50° 100% - - 50° 50° 48.6° - - -
4/25 12:40am 182 5 G 7 49° 100% - - 49° 49.8° 48.6° - - -
4/25 12:30am 188 5 G 8 49° 100% - - 49° 49.7° 48.6° - - -
4/25 12:20am 178 5 G 9 49° 100% - - 49° 49.5° 48.6° - - -
4/25 12:10am 180 4 G 7 49° 100% - - 49° 49.3° 48.6° - - -
4/25 12:00am 206 5 G 10 49° 100% - - 49° 65.9° 42.7° - - -
4/24 11:50pm 255 6 G 10 49° 100% - - 49° 65.9° 42.7° - - -
4/24 11:40pm 254 5 G 9 49° 100% - - 49° 65.9° 42.7° - - -
4/24 11:30pm 233 5 G 10 49° 100% - - 49° 65.9° 42.7° - - -
4/24 11:20pm 235 5 G 8 49° 100% - - 49° 65.9° 42.7° - - -
4/24 11:10pm 225 8 G 12 49° 100% - - 49° 65.9° 42.7° - - -
4/24 11:00pm 239 7 G 11 50° 100% - - 50° 65.9° 42.7° - - -
4/24 10:50pm 232 6 G 8 50° 100% - - 50° 65.9° 42.7° - - -
4/24 10:40pm 215 3 G 7 50° 100% - - 50° 65.9° 42.7° - - -
4/24 10:30pm 200 3 G 5 49° 100% - - 49° 65.9° 42.7° - - -
4/24 10:20pm 187 4 G 5 50° 100% - - 50° 65.9° 42.7° - - -
4/24 10:10pm 192 4 G 5 50° 100% - - 50° 65.9° 42.7° - - -
4/24 10:00pm 184 3 G 4 50° 100% - - 50° 65.9° 42.7° - - -
4/24 9:50pm 206 4 G 5 50° 100% - - 50° 65.9° 42.7° - - -
4/24 9:40pm 218 4 G 4 50° 100% - - 50° 65.9° 42.7° - - -
4/24 9:30pm 217 3 G 5 50° 100% - - 50° 65.9° 42.7° - - -
4/24 9:20pm 199 4 G 5 51° 100% - - 51° 65.9° 42.7° - - -
4/24 9:10pm 204 4 G 5 51° 100% - - 51° 65.9° 42.7° - - -
4/24 9:00pm 220 4 G 6 51° 100% - - 51° 65.9° 42.7° - - -
4/24 8:50pm 227 5 G 7 51° 100% - - 51° 65.9° 42.7° - - -
4/24 8:40pm 220 4 G 6 52° 100% - - 52° 65.9° 42.7° - - -
4/24 8:30pm 206 3 G 6 52° 100% - - 52° 65.9° 42.7° - - -
4/24 8:20pm 185 2 G 4 52° 100% - - 52° 65.9° 42.7° - - -
4/24 8:10pm 203 3 G 6 52° 100% - - 52° 65.9° 42.7° - - -
4/24 8:00pm 206 4 G 6 52° 100% - - 52° 65.9° 42.7° - - -
4/24 7:50pm 218 3 G 6 53° 100% - - 53° 65.9° 42.7° - - -
4/24 7:40pm 224 3 G 7 53° 100% - - 53° 65.9° 42.7° - - -
4/24 7:30pm 237 3 G 6 53° 100% - - 53° 65.9° 42.7° - - -
4/24 7:20pm 235 4 G 6 53° 100% - - 53° 65.9° 42.7° - - -
4/24 7:10pm 241 4 G 9 54° 100% - - 54° 65.9° 42.7° - - -
4/24 7:00pm 240 6 G 10 54° 100% - - 54° 65.9° 42.7° - - -
4/24 6:50pm 239 6 G 9 55° 100% - - 55° 65.9° 42.7° - - -
4/24 6:40pm 228 7 G 10 55° 100% - - 55° 65.9° 42.7° - - -
4/24 6:30pm 230 7 G 11 56° 96% - - 55° 65.9° 42.7° - - -
4/24 6:20pm 226 7 G 11 56° 91% - - 54° 65.9° 42.7° - - -
4/24 6:10pm 238 7 G 11 58° 85% - - 53° 65.9° 42.7° - - -
4/24 6:00pm 230 8 G 12 57° 85% - - 53° 65.9° 42.7° - - -